.
WxDataArchive / Data Records for 2007-03-02
2007-03-01 March 2007 2007-03-03

Data Records for Friday, 02 March 2007

Time	Temp	Chill	HIndex	Humid	Dewpt	 Wind 	HiWind	WindDir	Rain 	Barom 
-----	----	-----	------	-----	-----	------	------	-------	-----	----- 
00:00	36.5	31.6	36.5	77	30.0	6	16	270	0.00	29.234 
00:05	36.5	32.4	36.5	77	30.0	5	13	270	0.00	29.235 
00:10	36.2	31.2	36.2	77	29.7	6	13	270	0.00	29.237 
00:15	36.0	31.8	36.0	77	29.5	5	14	270	0.00	29.235 
00:20	35.9	31.7	35.9	77	29.4	5	14	270	0.00	29.235 
00:25	35.9	31.7	35.9	77	29.4	5	12	270	0.00	29.234 
00:30	35.9	30.9	35.9	77	29.4	6	11	270	0.00	29.232 
00:35	35.9	32.6	35.9	77	29.4	4	9	248	0.00	29.231 
00:40	35.8	32.5	35.8	77	29.3	4	10	270	0.00	29.232 
00:45	35.8	31.5	35.8	77	29.3	5	13	248	0.00	29.233 
00:50	35.8	32.5	35.8	77	29.3	4	7	248	0.00	29.234 
00:55	35.8	32.5	35.8	77	29.3	4	13	248	0.00	29.236 
01:00	35.8	32.5	35.8	76	29.0	4	9	248	0.00	29.235 
01:05	35.8	30.8	35.8	74	28.3	6	13	270	0.00	29.237 
01:10	35.8	32.5	35.8	73	28.0	4	11	270	0.00	29.234 
01:15	35.8	30.8	35.8	72	27.7	6	16	248	0.00	29.238 
01:20	35.9	31.7	35.9	72	27.8	5	13	248	0.00	29.235 
01:25	35.8	31.5	35.8	71	27.3	5	10	270	0.00	29.236 
01:30	35.8	31.5	35.8	71	27.3	5	11	270	0.00	29.237 
01:35	35.8	31.5	35.8	71	27.3	5	11	248	0.00	29.241 
01:40	35.8	32.5	35.8	71	27.3	4	10	270	0.00	29.242 
01:45	35.8	31.5	35.8	70	27.0	5	15	248	0.00	29.247 
01:50	35.6	31.3	35.6	70	26.8	5	14	270	0.00	29.246 
01:55	35.6	32.2	35.6	70	26.8	4	10	248	0.00	29.248 
02:00	35.5	30.4	35.5	71	27.0	6	15	248	0.00	29.249 
02:05	35.5	31.2	35.5	71	27.0	5	11	270	0.00	29.247 
02:10	35.5	30.4	35.5	71	27.0	6	15	270	0.00	29.247 
02:15	35.5	31.2	35.5	71	27.0	5	11	248	0.00	29.247 
02:20	35.3	31.0	35.3	72	27.2	5	13	248	0.00	29.247 
02:25	35.3	31.0	35.3	71	26.9	5	15	248	0.00	29.250 
02:30	35.3	30.2	35.3	71	26.9	6	15	248	0.00	29.248 
02:35	35.3	30.2	35.3	69	26.2	6	19	270	0.00	29.249 
02:40	35.3	31.0	35.3	69	26.2	5	12	270	0.00	29.249 
02:45	35.3	30.2	35.3	69	26.2	6	14	248	0.00	29.249 
02:50	35.2	29.4	35.2	69	26.1	7	13	270	0.00	29.249 
02:55	35.2	30.8	35.2	69	26.1	5	16	270	0.00	29.249 
03:00	35.3	28.3	35.3	65	24.7	9	23	270	0.00	29.242 
03:05	35.3	29.5	35.3	66	25.1	7	14	248	0.00	29.241 
03:10	35.2	30.8	35.2	67	25.4	5	15	270	0.00	29.244 
03:15	35.0	30.6	35.0	67	25.2	5	10	270	0.00	29.242 
03:20	35.0	29.8	35.0	67	25.2	6	14	270	0.00	29.243 
03:25	35.0	30.6	35.0	67	25.2	5	11	248	0.00	29.243 
03:30	35.0	29.1	35.0	67	25.2	7	16	270	0.00	29.244 
03:35	35.0	30.6	35.0	68	25.5	5	13	248	0.00	29.245 
03:40	34.9	29.7	34.9	68	25.4	6	13	248	0.00	29.243 
03:45	34.7	30.2	34.7	69	25.6	5	13	270	0.00	29.238 
03:50	34.7	29.4	34.7	69	25.6	6	11	248	0.00	29.237 
03:55	34.7	29.4	34.7	69	25.6	6	18	270	0.00	29.236 
04:00	34.7	30.2	34.7	69	25.6	5	15	248	0.00	29.233 
04:05	34.7	30.2	34.7	68	25.2	5	13	270	0.00	29.231 
04:10	34.7	29.4	34.7	67	24.9	6	11	270	0.00	29.232 
04:15	34.7	29.4	34.7	68	25.2	6	14	270	0.00	29.232 
04:20	34.7	30.2	34.7	68	25.2	5	11	270	0.00	29.231 
04:25	34.6	30.1	34.6	68	25.1	5	10	270	0.00	29.229 
04:30	34.6	28.6	34.6	67	24.8	7	20	270	0.00	29.229 
04:35	34.6	29.3	34.6	67	24.8	6	13	248	0.00	29.230 
04:40	34.6	30.1	34.6	68	25.1	5	13	270	0.00	29.230 
04:45	34.6	30.1	34.6	68	25.1	5	11	248	0.00	29.230 
04:50	34.6	28.6	34.6	66	24.4	7	18	248	0.00	29.230 
04:55	34.6	28.6	34.6	65	24.1	7	13	270	0.00	29.232 
05:00	34.6	28.0	34.6	65	24.1	8	21	270	0.01	29.231 
05:05	34.6	29.3	34.6	65	24.1	6	11	270	0.00	29.231 
05:10	34.4	29.1	34.4	66	24.2	6	13	270	0.00	29.232 
05:15	34.3	27.6	34.3	65	23.8	8	21	270	0.00	29.229 
05:20	34.3	28.3	34.3	66	24.1	7	18	270	0.00	29.232 
05:25	34.1	29.5	34.1	66	23.9	5	17	248	0.00	29.233 
05:30	34.1	28.0	34.1	65	23.6	7	17	270	0.00	29.231 
05:35	34.3	27.6	34.3	64	23.4	8	18	248	0.00	29.229 
05:40	34.4	28.4	34.4	64	23.5	7	15	248	0.00	29.230 
05:45	34.4	28.4	34.4	64	23.5	7	20	270	0.00	29.240 
05:50	34.3	28.3	34.3	65	23.8	7	15	270	0.00	29.234 
05:55	34.1	28.7	34.1	65	23.6	6	19	248	0.00	29.237 
06:00	34.1	28.0	34.1	64	23.2	7	15	270	0.00	29.233 
06:05	34.1	26.3	34.1	63	22.8	10	21	270	0.00	29.232 
06:10	34.1	28.0	34.1	64	23.2	7	19	270	0.00	29.232 
06:15	34.0	26.7	34.0	64	23.1	9	20	270	0.00	29.235 
06:20	33.8	27.0	33.8	65	23.3	8	23	270	0.00	29.238 
06:25	33.5	26.1	33.5	68	24.1	9	17	248	0.00	29.238 
06:30	33.2	26.9	33.2	71	24.8	7	16	248	0.00	29.242 
06:35	32.8	26.5	32.8	75	25.8	7	24	248	0.00	29.244 
06:40	32.5	26.8	32.5	77	26.1	6	13	248	0.00	29.244 
06:45	32.1	26.3	32.1	80	26.6	6	17	248	0.00	29.244 
06:50	31.8	27.8	31.8	81	26.6	4	11	270	0.00	29.243 
06:55	31.6	27.6	31.6	81	26.5	4	9	248	0.00	29.243 
07:00	31.8	26.8	31.8	79	26.0	5	13	270	0.00	29.238 
07:05	32.1	27.2	32.1	76	25.4	5	14	270	0.00	29.239 
07:10	32.4	26.7	32.4	73	24.7	6	14	270	0.00	29.241 
07:15	32.7	28.9	32.7	71	24.4	4	13	248	0.00	29.241 
07:20	32.8	26.5	32.8	70	24.1	7	17	248	0.00	29.238 
07:25	32.9	26.6	32.9	69	23.9	7	17	248	0.00	29.242 
07:30	32.9	27.3	32.9	70	24.2	6	15	270	0.00	29.242 
07:35	32.8	26.5	32.8	70	24.1	7	13	270	0.00	29.242 
07:40	32.7	27.1	32.7	71	24.4	6	12	270	0.00	29.241 
07:45	32.7	27.1	32.7	70	24.0	6	17	248	0.00	29.241 
07:50	32.7	27.1	32.7	70	24.0	6	18	270	0.00	29.241 
07:55	32.7	26.3	32.7	71	24.4	7	15	270	0.00	29.243 
08:00	32.5	26.1	32.5	73	24.8	7	18	270	0.00	29.242 
08:05	32.5	27.7	32.5	73	24.8	5	10	248	0.00	29.243 
08:10	32.5	28.7	32.5	73	24.8	4	12	248	0.00	29.243 
08:15	32.7	28.9	32.7	72	24.7	4	11	248	0.00	29.243 
08:20	33.1	26.8	33.1	68	23.7	7	14	270	0.00	29.242 
08:25	33.4	26.6	33.4	66	23.3	8	19	270	0.00	29.245 
08:30	33.4	26.0	33.4	67	23.6	9	20	270	0.00	29.244 
08:35	33.1	25.6	33.1	68	23.7	9	19	248	0.00	29.244 
08:40	33.1	26.8	33.1	69	24.1	7	20	248	0.00	29.245 
08:45	33.1	26.8	33.1	69	24.1	7	17	270	0.00	29.248 
08:50	33.2	27.7	33.2	68	23.8	6	18	270	0.00	29.247 
08:55	33.4	27.9	33.4	67	23.6	6	12	270	0.00	29.248 
09:00	33.5	26.7	33.5	67	23.7	8	17	270	0.00	29.254 
09:05	33.2	26.3	33.2	69	24.2	8	20	270	0.00	29.259 
09:10	32.9	25.9	32.9	71	24.5	8	20	270	0.00	29.258 
09:15	32.8	27.2	32.8	72	24.8	6	15	270	0.00	29.259 
09:20	32.7	26.3	32.7	72	24.7	7	15	270	0.00	29.260 
09:25	32.5	26.8	32.5	74	25.2	6	15	248	0.00	29.262 
09:30	32.4	26.7	32.4	75	25.4	6	13	270	0.00	29.264 
09:35	32.1	26.3	32.1	76	25.4	6	12	270	0.00	29.267 
09:40	31.8	26.0	31.8	78	25.7	6	15	270	0.00	29.268 
09:45	31.8	26.8	31.8	77	25.4	5	13	270	0.00	29.265 
09:50	32.1	26.3	32.1	76	25.4	6	13	248	0.00	29.271 
09:55	32.4	26.7	32.4	75	25.4	6	19	270	0.00	29.271 
10:00	32.1	26.3	32.1	76	25.4	6	13	270	0.00	29.277 
10:05	32.1	25.6	32.1	76	25.4	7	16	270	0.00	29.283 
10:10	32.2	25.1	32.2	73	24.5	8	15	270	0.00	29.283 
10:15	32.7	26.3	32.7	70	24.0	7	17	270	0.00	29.283 
10:20	33.1	27.5	33.1	68	23.7	6	17	270	0.00	29.283 
10:25	33.7	27.5	33.7	64	22.8	7	21	270	0.00	29.284 
10:30	33.8	27.7	33.8	64	22.9	7	14	270	0.00	29.285 
10:35	33.4	26.0	33.4	68	24.0	9	18	270	0.00	29.289 
10:40	32.5	26.8	32.5	74	25.2	6	18	270	0.00	29.293 
10:45	32.4	26.7	32.4	77	26.0	6	16	248	0.00	29.294 
10:50	32.5	26.1	32.5	77	26.1	7	18	270	0.00	29.296 
10:55	32.5	26.1	32.5	77	26.1	7	17	270	0.00	29.295 
11:00	32.9	26.6	32.9	75	25.9	7	12	270	0.00	29.297 
11:05	33.5	26.7	33.5	70	24.8	8	22	270	0.00	29.299 
11:10	33.5	25.1	33.5	69	24.4	11	18	248	0.00	29.296 
11:15	33.7	26.9	33.7	69	24.6	8	19	248	0.00	29.299 
11:20	33.7	28.3	33.7	69	24.6	6	17	248	0.00	29.298 
11:25	33.8	27.7	33.8	67	24.0	7	16	270	0.00	29.299 
11:30	33.7	27.5	33.7	66	23.6	7	16	270	0.00	29.302 
11:35	33.8	27.7	33.8	65	23.3	7	15	270	0.00	29.301 
11:40	34.1	28.7	34.1	64	23.2	6	14	270	0.00	29.302 
11:45	34.4	27.8	34.4	62	22.7	8	15	270	0.00	29.303 
11:50	34.3	27.1	34.3	62	22.7	9	17	270	0.00	29.304 
11:55	34.3	29.0	34.3	62	22.7	6	13	270	0.00	29.306 
12:00	34.7	29.4	34.7	61	22.6	6	15	248	0.00	29.305 
12:05	34.9	27.8	34.9	60	22.4	9	20	270	0.00	29.310 
12:10	34.7	27.6	34.7	62	23.0	9	21	270	0.00	29.311 
12:15	34.1	25.4	34.1	63	22.8	12	24	270	0.00	29.312 
12:20	34.0	26.2	34.0	63	22.7	10	19	248	0.00	29.314 
12:25	34.0	27.9	34.0	64	23.1	7	15	270	0.00	29.313 
12:30	34.0	27.3	34.0	63	22.7	8	16	270	0.00	29.313 
12:35	33.7	27.5	33.7	67	23.9	7	17	270	0.00	29.314 
12:40	33.5	27.3	33.5	68	24.1	7	17	270	0.00	29.319 
12:45	34.4	27.8	34.4	63	23.1	8	24	270	0.00	29.313 
12:50	34.6	28.6	34.6	62	22.9	7	17	248	0.00	29.315 
12:55	34.6	28.0	34.6	61	22.6	8	19	270	0.00	29.314 
13:00	34.1	26.8	34.1	64	23.2	9	20	248	0.00	29.325 
13:05	33.5	26.1	33.5	67	23.7	9	18	270	0.00	29.323 
13:10	33.7	27.5	33.7	69	24.6	7	17	270	0.00	29.326 
13:15	33.5	25.6	33.5	68	24.1	10	22	270	0.00	29.327 
13:20	33.2	27.7	33.2	70	24.5	6	17	270	0.00	29.330 
13:25	33.4	27.2	33.4	72	25.4	7	15	270	0.00	29.330 
13:30	34.0	27.9	34.0	70	25.3	7	18	270	0.00	29.328 
13:35	33.8	26.0	33.8	67	24.0	10	23	270	0.00	29.328 
13:40	34.1	27.4	34.1	68	24.7	8	20	270	0.00	29.330 
13:45	34.4	28.4	34.4	66	24.2	7	22	270	0.00	29.333 
13:50	34.4	27.8	34.4	66	24.2	8	20	270	0.00	29.331 
13:55	34.6	28.6	34.6	66	24.4	7	15	270	0.00	29.332 
14:00	35.2	30.8	35.2	66	25.0	5	10	270	0.00	29.335 
14:05	35.5	30.4	35.5	61	23.4	6	18	270	0.00	29.333 
14:10	34.7	27.1	34.7	62	23.0	10	23	270	0.00	29.331 
14:15	34.7	29.4	34.7	62	23.0	6	13	270	0.00	29.342 
14:20	34.9	28.4	34.9	59	22.0	8	18	248	0.00	29.344 
14:25	34.3	26.1	34.3	62	22.7	11	19	248	0.00	29.345 
14:30	33.7	25.8	33.7	66	23.6	10	19	270	0.00	29.349 
14:35	34.4	27.8	34.4	62	22.7	8	19	248	0.00	29.348 
14:40	34.7	27.1	34.7	62	23.0	10	25	248	0.00	29.343 
14:45	34.6	28.0	34.6	61	22.6	8	17	270	0.00	29.350 
14:50	34.6	28.0	34.6	65	24.1	8	20	270	0.00	29.360 
14:55	35.0	27.9	35.0	64	24.1	9	21	270	0.00	29.358 
15:00	35.2	27.2	35.2	59	22.3	11	25	270	0.00	29.361 
15:05	35.3	30.2	35.3	61	23.2	6	17	270	0.00	29.360 
15:10	35.0	27.9	35.0	63	23.7	9	17	248	0.00	29.361 
15:15	35.5	28.6	35.5	62	23.8	9	26	270	0.00	29.367 
15:20	35.5	28.6	35.5	61	23.4	9	15	270	0.00	29.365 
15:25	35.2	28.2	35.2	63	23.9	9	20	270	0.00	29.372 
15:30	35.3	27.8	35.3	63	24.0	10	21	270	0.00	29.377 
15:35	35.5	27.6	35.5	62	23.8	11	23	270	0.00	29.377 
15:40	35.5	28.6	35.5	61	23.4	9	24	270	0.00	29.377 
15:45	35.2	28.2	35.2	62	23.5	9	22	270	0.00	29.378 
15:50	35.3	29.5	35.3	62	23.6	7	17	270	0.00	29.385 
15:55	34.9	27.8	34.9	62	23.2	9	19	270	0.00	29.386 
16:00	34.9	29.0	34.9	64	24.0	7	15	270	0.00	29.388 
16:05	35.0	28.5	35.0	63	23.7	8	19	270	0.00	29.387 
16:10	35.2	28.7	35.2	63	23.9	8	19	270	0.00	29.389 
16:15	35.6	31.3	35.6	62	23.9	5	14	270	0.00	29.392 
16:20	35.8	30.1	35.8	59	22.9	7	18	270	0.00	29.393 
16:25	35.9	30.2	35.9	60	23.4	7	17	270	0.00	29.393 
16:30	35.9	28.1	35.9	57	22.2	11	24	248	0.00	29.391 
16:35	35.8	28.9	35.8	58	22.5	9	19	270	0.00	29.397 
16:40	35.9	28.6	35.9	58	22.6	10	24	270	0.00	29.396 
16:45	36.0	30.3	36.0	58	22.7	7	16	270	0.00	29.394 
16:50	35.8	28.4	35.8	58	22.5	10	31	270	0.00	29.395 
16:55	35.8	28.9	35.8	59	22.9	9	31	270	0.00	29.401 
17:00	36.0	29.7	36.0	58	22.7	8	24	270	0.00	29.405 
17:05	35.8	28.4	35.8	58	22.5	10	21	270	0.00	29.400 
17:10	35.5	29.1	35.5	59	22.6	8	19	270	0.00	29.407 
17:15	35.3	30.2	35.3	61	23.2	6	16	270	0.00	29.411 
17:20	35.2	28.2	35.2	62	23.5	9	17	270	0.00	29.412 
17:25	35.2	28.2	35.2	61	23.1	9	19	270	0.00	29.413 
17:30	35.2	28.2	35.2	60	22.7	9	24	270	0.00	29.413 
17:35	35.2	28.7	35.2	60	22.7	8	18	270	0.00	29.418 
17:40	35.3	27.8	35.3	60	22.8	10	16	270	0.00	29.420 
17:45	35.3	29.5	35.3	59	22.4	7	22	270	0.00	29.423 
17:50	35.3	27.8	35.3	59	22.4	10	22	270	0.00	29.424 
17:55	35.2	28.2	35.2	59	22.3	9	17	270	0.00	29.428 
18:00	35.2	28.2	35.2	61	23.1	9	22	270	0.00	29.431 
18:05	35.0	27.9	35.0	61	22.9	9	21	270	0.00	29.431 
18:10	34.9	28.4	34.9	61	22.8	8	17	270	0.00	29.438 
18:15	34.9	29.0	34.9	62	23.2	7	15	270	0.00	29.440 
18:20	34.7	28.1	34.7	60	22.3	8	20	270	0.00	29.441 
18:25	34.7	28.1	34.7	59	21.9	8	22	270	0.00	29.443 
18:30	34.7	28.8	34.7	60	22.3	7	15	270	0.00	29.445 
18:35	34.7	28.8	34.7	59	21.9	7	19	270	0.00	29.447 
18:40	34.7	27.6	34.7	59	21.9	9	18	270	0.00	29.449 
18:45	34.7	28.8	34.7	60	22.3	7	14	270	0.00	29.450 
18:50	34.6	28.6	34.6	60	22.2	7	19	270	0.00	29.457 
18:55	34.4	29.1	34.4	61	22.4	6	16	270	0.00	29.459 
19:00	34.4	28.4	34.4	61	22.4	7	20	270	0.00	29.462 
19:05	34.4	28.4	34.4	61	22.4	7	19	270	0.00	29.466 
19:10	34.3	29.0	34.3	62	22.7	6	18	270	0.00	29.472 
19:15	34.1	29.5	34.1	63	22.8	5	12	248	0.00	29.475 
19:20	34.1	28.7	34.1	63	22.8	6	18	270	0.00	29.474 
19:25	34.0	28.6	34.0	63	22.7	6	15	270	0.00	29.476 
19:30	34.0	28.6	34.0	64	23.1	6	12	270	0.00	29.477 
19:35	33.8	27.7	33.8	64	22.9	7	17	270	0.00	29.481 
19:40	33.7	29.1	33.7	67	23.9	5	13	270	0.00	29.481 
19:45	33.4	27.9	33.4	69	24.3	6	12	270	0.00	29.492 
19:50	33.2	27.7	33.2	73	25.5	6	17	270	0.00	29.492 
19:55	31.9	25.4	31.9	81	26.7	7	15	270	0.00	29.497 
20:00	31.0	24.3	31.0	84	26.7	7	14	270	0.00	29.498 
20:05	30.9	24.9	30.9	84	26.6	6	15	270	0.00	29.503 
20:10	31.0	25.9	31.0	82	26.2	5	13	270	0.00	29.494 
20:15	31.3	25.4	31.3	79	25.6	6	19	270	0.00	29.495 
20:20	31.8	25.3	31.8	76	25.1	7	16	270	0.00	29.496 
20:25	31.9	26.1	31.9	74	24.6	6	13	270	0.00	29.504 
20:30	32.1	25.6	32.1	72	24.1	7	15	270	0.00	29.503 
20:35	32.2	25.7	32.2	71	23.9	7	15	270	0.00	29.505 
20:40	32.4	25.3	32.4	69	23.4	8	16	270	0.00	29.507 
20:45	32.4	26.7	32.4	68	23.0	6	19	270	0.00	29.508 
20:50	32.4	24.2	32.4	67	22.7	10	20	270	0.00	29.508 
20:55	32.2	25.1	32.2	69	23.2	8	17	270	0.00	29.509 
21:00	32.1	26.3	32.1	70	23.4	6	17	270	0.00	29.516 
21:05	31.9	25.4	31.9	70	23.2	7	16	270	0.00	29.515 
21:10	31.8	26.0	31.8	71	23.5	6	14	270	0.00	29.517 
21:15	31.9	26.1	31.9	69	22.9	6	12	270	0.00	29.514 
21:20	31.9	27.0	31.9	68	22.6	5	20	270	0.00	29.518 
21:25	31.9	27.0	31.9	67	22.2	5	18	270	0.00	29.511 
21:30	31.9	25.4	31.9	65	21.5	7	15	270	0.00	29.517 
21:35	32.1	27.2	32.1	65	21.7	5	12	270	0.00	29.516 
21:40	31.9	27.0	31.9	65	21.5	5	12	270	0.00	29.511 
21:45	31.9	25.4	31.9	64	21.1	7	17	270	0.00	29.513 
21:50	31.8	25.3	31.8	65	21.4	7	16	270	0.00	29.514 
21:55	31.6	25.8	31.6	65	21.2	6	17	270	0.00	29.523 
22:00	31.8	25.3	31.8	66	21.8	7	17	270	0.00	29.524 
22:05	31.8	25.3	31.8	66	21.8	7	16	270	0.00	29.526 
22:10	31.8	25.3	31.8	68	22.5	7	17	270	0.00	29.526 
22:15	31.0	23.0	31.0	74	23.7	9	17	270	0.00	29.527 
22:20	30.3	24.2	30.3	77	24.0	6	16	270	0.00	29.525 
22:25	30.1	24.0	30.1	77	23.8	6	12	270	0.00	29.529 
22:30	30.1	22.5	30.1	74	22.8	8	20	270	0.00	29.527 
22:35	30.3	23.4	30.3	72	22.4	7	14	270	0.00	29.528 
22:40	30.3	24.2	30.3	70	21.7	6	14	270	0.00	29.526 
22:45	30.3	24.2	30.3	69	21.4	6	14	270	0.00	29.526 
22:50	30.4	23.6	30.4	67	20.8	7	16	270	0.00	29.527 
22:55	30.3	24.2	30.3	67	20.7	6	13	270	0.00	29.530 
23:00	30.1	24.0	30.1	67	20.5	6	14	270	0.00	29.529 
23:05	30.1	23.2	30.1	65	19.8	7	20	270	0.00	29.525 
23:10	30.1	24.0	30.1	65	19.8	6	16	270	0.00	29.528 
23:15	30.0	24.7	30.0	65	19.7	5	12	270	0.00	29.534 
23:20	29.8	23.6	29.8	64	19.1	6	17	270	0.00	29.532 
23:25	29.7	23.5	29.7	65	19.4	6	14	270	0.00	29.527 
23:30	29.5	23.3	29.5	65	19.2	6	15	270	0.00	29.527 
23:35	29.4	22.4	29.4	65	19.1	7	19	270	0.00	29.531 
23:40	29.4	22.4	29.4	65	19.1	7	17	270	0.00	29.527 
23:45	29.4	23.1	29.4	65	19.1	6	13	270	0.00	29.524 
23:50	29.4	23.1	29.4	65	19.1	6	18	270	0.00	29.526 
23:55	29.3	23.9	29.3	65	19.0	5	10	270	0.00	29.525 

CoCoRaHS
IN-AL-39
A2 Web Hosting
Creative Commons License
GoDaddy
Look for:

loaded 2017-10-19 14:45:18 • last modified 2010-11-18 10:43:29
Privacy PolicyDisclaimer
• wx.awcolley.com is powered by PmWiki v.2002016 •
• all content (unless otherwise noted) © 2017 A W Colley